createdAt,value
2022-08-26T00:00:02.926Z,997.85
2022-08-26T00:10:11.803Z,997.81
2022-08-26T00:20:18.515Z,997.78
2022-08-26T00:31:45.289Z,997.76
2022-08-26T00:41:50.276Z,997.80
2022-08-26T00:51:57.372Z,997.76
2022-08-26T01:02:02.795Z,997.81
2022-08-26T01:12:09.829Z,997.77
2022-08-26T01:22:16.495Z,997.68
2022-08-26T01:32:23.951Z,997.67
2022-08-26T01:42:29.676Z,997.76
2022-08-26T01:52:36.214Z,997.70
2022-08-26T02:02:41.550Z,997.73
2022-08-26T02:12:51.200Z,997.72
2022-08-26T02:22:56.829Z,997.72
2022-08-26T02:33:04.120Z,997.55
2022-08-26T02:43:09.745Z,997.57
2022-08-26T02:53:16.660Z,997.45
2022-08-26T03:03:27.377Z,997.47
2022-08-26T03:13:34.791Z,997.40
2022-08-26T03:23:47.852Z,997.30
2022-08-26T03:33:59.619Z,997.35
2022-08-26T03:44:05.391Z,997.30
2022-08-26T03:54:12.293Z,997.31
2022-08-26T04:04:17.916Z,997.36
2022-08-26T04:14:24.667Z,997.36
2022-08-26T04:24:30.344Z,997.34
2022-08-26T04:34:37.701Z,997.37
2022-08-26T04:44:45.290Z,997.32
2022-08-26T04:54:52.963Z,997.33
2022-08-26T05:04:58.711Z,997.42
2022-08-26T05:15:07.633Z,997.44
2022-08-26T05:25:13.132Z,997.43
2022-08-26T05:35:20.840Z,997.46
2022-08-26T05:45:28.822Z,997.48
2022-08-26T05:55:36.057Z,997.47
2022-08-26T06:05:44.843Z,997.50
2022-08-26T06:15:52.539Z,997.58
2022-08-26T06:25:59.231Z,997.60
2022-08-26T06:36:06.867Z,997.56
2022-08-26T06:46:12.452Z,997.53
2022-08-26T06:56:18.334Z,997.55
2022-08-26T07:06:25.438Z,997.57
2022-08-26T07:16:32.752Z,997.54
2022-08-26T07:26:39.007Z,997.56
2022-08-26T07:36:50.457Z,997.65
2022-08-26T07:46:56.035Z,997.62
2022-08-26T07:57:08.354Z,997.58
2022-08-26T08:07:15.186Z,997.56
2022-08-26T08:17:29.695Z,997.65
2022-08-26T08:27:35.594Z,997.50
2022-08-26T08:37:42.699Z,997.32
2022-08-26T08:47:49.298Z,997.19
2022-08-26T08:57:57.002Z,997.08
2022-08-26T09:08:11.333Z,996.91
2022-08-26T09:18:19.365Z,996.81
2022-08-26T09:28:25.121Z,996.76
2022-08-26T09:38:32.652Z,996.61
2022-08-26T09:48:41.077Z,996.52
2022-08-26T09:58:49.239Z,996.47
2022-08-26T10:08:55.111Z,996.27
2022-08-26T10:19:03.108Z,996.12
2022-08-26T10:29:11.989Z,995.99
2022-08-26T10:39:18.241Z,995.77
2022-08-26T10:49:27.004Z,995.62
2022-08-26T10:59:34.470Z,995.41
2022-08-26T11:09:43.290Z,995.21
2022-08-26T11:20:00.909Z,995.31
2022-08-26T11:30:01.318Z,995.19
2022-08-26T11:40:08.720Z,995.10
2022-08-26T11:50:14.371Z,995.02
2022-08-26T12:00:22.391Z,995.09
2022-08-26T12:10:29.502Z,995.01
2022-08-26T12:20:35.134Z,994.93
2022-08-26T12:30:43.175Z,994.85
2022-08-26T12:40:49.636Z,994.81
2022-08-26T12:50:57.429Z,994.49
2022-08-26T13:01:03.520Z,994.49
2022-08-26T13:11:10.792Z,994.20
2022-08-26T13:21:16.371Z,994.45
2022-08-26T13:31:27.062Z,994.66
2022-08-26T13:41:32.962Z,994.72
2022-08-26T13:51:41.080Z,994.40
2022-08-26T14:01:53.783Z,994.28
2022-08-26T14:12:02.838Z,994.30
2022-08-26T14:22:09.294Z,994.22
2022-08-26T14:32:16.381Z,994.15
2022-08-26T14:42:24.910Z,994.41
2022-08-26T14:52:30.715Z,994.67
2022-08-26T15:02:36.813Z,994.71
2022-08-26T15:12:43.183Z,994.94
2022-08-26T15:22:49.353Z,995.97
2022-08-26T15:32:58.341Z,996.40
2022-08-26T15:43:18.518Z,996.30
2022-08-26T15:53:16.446Z,996.05
2022-08-26T16:03:22.204Z,995.78
2022-08-26T16:13:30.398Z,995.46
2022-08-26T16:23:45.092Z,995.43
2022-08-26T16:33:51.711Z,995.76
2022-08-26T16:44:05.550Z,995.45
2022-08-26T16:54:11.777Z,995.36
2022-08-26T17:04:21.525Z,995.06
2022-08-26T17:14:27.698Z,994.95
2022-08-26T17:24:34.065Z,995.11
2022-08-26T17:34:40.316Z,995.30
2022-08-26T17:44:46.452Z,995.48
2022-08-26T17:54:52.601Z,995.47
2022-08-26T18:05:00.045Z,995.48
2022-08-26T18:15:06.509Z,995.56
2022-08-26T18:25:14.195Z,995.46
2022-08-26T18:35:20.017Z,995.37
2022-08-26T18:45:26.986Z,995.18
2022-08-26T18:55:32.958Z,995.11
2022-08-26T19:07:10.748Z,995.18
2022-08-26T19:17:14.929Z,995.35
2022-08-26T19:27:22.561Z,995.37
2022-08-26T19:37:28.282Z,995.51
2022-08-26T19:48:55.845Z,995.68
2022-08-26T19:59:01.619Z,995.90
2022-08-26T20:09:09.839Z,996.07
2022-08-26T20:19:16.067Z,996.18
2022-08-26T20:29:23.920Z,996.14
2022-08-26T20:39:29.831Z,996.09
2022-08-26T20:49:37.654Z,996.27
2022-08-26T20:59:44.071Z,996.35
2022-08-26T21:09:51.839Z,996.41
2022-08-26T21:19:58.605Z,996.24
2022-08-26T21:30:05.849Z,996.23
2022-08-26T21:40:11.655Z,996.31
2022-08-26T21:50:18.070Z,996.24
2022-08-26T22:00:24.229Z,996.16
2022-08-26T22:10:32.107Z,996.01
2022-08-26T22:20:37.702Z,996.05
2022-08-26T22:30:49.614Z,996.00
2022-08-26T22:40:55.397Z,995.97
2022-08-26T22:51:02.655Z,995.94
2022-08-26T23:01:08.534Z,996.04
2022-08-26T23:11:15.885Z,995.89
2022-08-26T23:21:21.640Z,995.81
2022-08-26T23:31:29.155Z,995.95
2022-08-26T23:41:34.997Z,995.91
2022-08-26T23:51:42.334Z,996.04
